Time;durP1;ratioP1;P1;durP2;ratioP2;P2;SDS_P1;SDS_P2;PMS_P1;PMS_P2;Temp;Humidity;BMP_temperature;BMP_pressure;BME280_temperature;BME280_humidity;BME280_pressure;Samples;Min_cycle;Max_cycle;Signal;HPM_P1;HPM_P2
2021/11/25 00:02:10;;;;;;;10.45;7.28;;;;;;;4.22;73.53;100313.19;8719932;33;20585;-72
2021/11/25 00:07:14;;;;;;;12.88;7.95;;;;;;;4.16;72.22;100309.91;8719659;33;20221;-73
2021/11/25 00:12:17;;;;;;;11.30;7.60;;;;;;;4.15;74.22;100292.25;8719666;33;20245;-73
2021/11/25 00:17:21;;;;;;;14.77;8.45;;;;;;;4.12;73.90;100287.13;8723883;33;20167;-73
2021/11/25 00:22:24;;;;;;;12.13;8.10;;;;;;;4.11;75.11;100282.75;8729887;33;20971;-72
2021/11/25 00:27:27;;;;;;;10.48;7.60;;;;;;;4.10;76.34;100267.72;8724683;33;21323;-73
2021/11/25 00:32:32;;;;;;;12.13;8.23;;;;;;;4.07;74.50;100267.06;8718787;33;20977;-72
2021/11/25 00:37:35;;;;;;;12.90;8.05;;;;;;;4.00;72.97;100245.25;8720758;33;20627;-74
2021/11/25 00:42:39;;;;;;;13.75;8.48;;;;;;;4.02;74.23;100235.41;8721341;33;20705;-75
2021/11/25 00:47:44;;;;;;;13.40;8.25;;;;;;;4.02;73.88;100235.41;8718200;33;20187;-74
2021/11/25 00:52:48;;;;;;;14.38;8.35;;;;;;;3.99;72.04;100232.06;8719424;33;20478;-73
2021/11/25 00:57:52;;;;;;;12.05;8.48;;;;;;;3.94;71.79;100221.69;8718682;33;20513;-73
2021/11/25 01:02:56;;;;;;;13.30;8.48;;;;;;;3.93;72.83;100219.97;8718174;33;21156;-73
2021/11/25 01:08:00;;;;;;;14.65;9.63;;;;;;;3.92;71.54;100216.47;8718422;33;20190;-73
2021/11/25 01:13:03;;;;;;;14.02;8.60;;;;;;;3.95;72.42;100215.44;8718598;33;20184;-73
2021/11/25 01:18:11;;;;;;;16.45;9.38;;;;;;;3.92;71.18;100216.47;8717867;33;20218;-73
2021/11/25 01:23:18;;;;;;;14.20;8.82;;;;;;;3.91;71.37;100216.53;8718105;33;20187;-73
2021/11/25 01:28:22;;;;;;;13.82;8.32;;;;;;;3.91;70.86;100204.09;8718527;33;20184;-74
2021/11/25 01:33:26;;;;;;;11.63;8.00;;;;;;;3.88;70.16;100204.28;8717846;33;20643;-73
2021/11/25 01:38:30;;;;;;;11.30;7.63;;;;;;;3.91;71.60;100197.94;8692037;33;20704;-74
2021/11/25 01:43:38;;;;;;;15.45;10.20;;;;;;;3.93;72.90;100193.41;8718453;33;20440;-73
2021/11/25 01:48:44;;;;;;;13.77;8.90;;;;;;;3.88;71.04;100190.16;8718254;33;20286;-73
2021/11/25 01:53:48;;;;;;;13.63;8.73;;;;;;;3.80;69.57;100192.38;8716398;33;20257;-74
2021/11/25 01:58:52;;;;;;;12.95;8.07;;;;;;;3.80;70.39;100184.41;8715906;33;20277;-73
2021/11/25 02:03:56;;;;;;;11.95;8.20;;;;;;;3.81;70.17;100183.44;8716618;33;20184;-73
2021/11/25 02:09:01;;;;;;;11.70;8.07;;;;;;;3.87;71.81;100175.16;8719599;33;20489;-73
2021/11/25 02:14:05;;;;;;;13.43;8.93;;;;;;;3.80;72.62;100160.50;8717979;33;20651;-73
2021/11/25 02:19:10;;;;;;;13.60;8.80;;;;;;;3.79;71.94;100154.31;8718179;33;22228;-74
2021/11/25 02:24:15;;;;;;;11.18;7.68;;;;;;;3.79;70.80;100149.00;8717929;33;20407;-73
2021/11/25 02:29:18;;;;;;;14.63;9.70;;;;;;;3.84;73.07;100162.00;8716463;33;20821;-72
2021/11/25 02:34:21;;;;;;;13.10;8.70;;;;;;;3.80;72.76;100144.53;8716456;33;20232;-74
2021/11/25 02:39:25;;;;;;;10.07;7.70;;;;;;;3.81;73.82;100140.94;8715657;33;21045;-73
2021/11/25 02:44:28;;;;;;;14.32;8.68;;;;;;;3.78;72.53;100143.75;8714834;33;20333;-74
2021/11/25 02:49:31;;;;;;;11.73;8.25;;;;;;;3.77;71.75;100137.59;8716152;33;21632;-74
2021/11/25 02:54:36;;;;;;;11.38;7.90;;;;;;;3.79;70.92;100133.06;8716921;33;20183;-74
2021/11/25 02:59:39;;;;;;;10.20;7.32;;;;;;;3.82;69.25;100124.91;8694909;33;21586;-73
2021/11/25 03:04:42;;;;;;;9.10;6.70;;;;;;;3.78;68.03;100117.19;8720231;33;20262;-72
2021/11/25 03:09:47;;;;;;;9.13;6.45;;;;;;;3.83;69.19;100105.34;8720685;33;20801;-74
2021/11/25 03:14:50;;;;;;;9.82;6.90;;;;;;;3.81;67.11;100103.72;8718890;33;20246;-74
2021/11/25 03:19:53;;;;;;;9.70;6.75;;;;;;;3.79;68.77;100098.53;8721109;33;20140;-73
2021/11/25 03:24:58;;;;;;;9.27;6.53;;;;;;;3.85;69.89;100100.81;8721331;33;20230;-74
2021/11/25 03:30:01;;;;;;;8.95;6.35;;;;;;;3.80;68.40;100096.72;8719611;33;20180;-74
2021/11/25 03:35:07;;;;;;;9.43;6.90;;;;;;;3.79;68.18;100087.03;8720312;33;20613;-74
2021/11/25 03:40:13;;;;;;;11.95;6.75;;;;;;;3.81;68.87;100096.63;8719634;33;20249;-73
2021/11/25 03:45:16;;;;;;;11.65;7.10;;;;;;;3.80;68.64;100099.38;8718699;33;20176;-73
2021/11/25 03:50:19;;;;;;;8.82;6.90;;;;;;;3.80;70.08;100099.38;8719690;33;20180;-74
2021/11/25 03:55:23;;;;;;;11.00;7.45;;;;;;;3.70;69.03;100105.22;8719906;33;20770;-73
2021/11/25 04:00:27;;;;;;;9.25;7.25;;;;;;;3.76;69.08;100098.72;8718570;33;20144;-73
2021/11/25 04:05:32;;;;;;;9.85;7.53;;;;;;;3.67;68.38;100092.09;8721306;33;20486;-73
2021/11/25 04:10:36;;;;;;;10.50;7.65;;;;;;;3.75;70.16;100091.66;8720441;33;20191;-73
2021/11/25 04:15:40;;;;;;;10.85;7.07;;;;;;;3.72;70.11;100078.56;8719726;33;20235;-73
2021/11/25 04:20:43;;;;;;;10.40;6.97;;;;;;;3.81;70.94;100082.47;8719244;33;21028;-73
2021/11/25 04:25:48;;;;;;;12.48;8.05;;;;;;;3.70;69.30;100081.31;8719403;33;20183;-72
2021/11/25 04:35:27;;;;;;;12.15;8.02;;;;;;;3.65;68.44;100085.19;8718496;33;20632;-73
2021/11/25 04:36:17;;;;;;;12.25;8.05;;;;;;;3.64;69.14;100075.47;8695156;33;20674;-73
2021/11/25 04:41:22;;;;;;;13.82;8.70;;;;;;;3.71;69.49;100063.56;8719279;33;20137;-74
2021/11/25 04:46:25;;;;;;;14.00;8.98;;;;;;;3.73;68.87;100067.00;8719473;33;20188;-73
2021/11/25 04:51:28;;;;;;;11.30;8.60;;;;;;;3.82;70.06;100049.66;8718095;33;20641;-73
2021/11/25 04:56:33;;;;;;;12.60;8.50;;;;;;;3.80;69.02;100051.56;8719564;33;20180;-73
2021/11/25 05:01:36;;;;;;;13.13;8.70;;;;;;;3.71;69.41;100051.13;8718111;33;20202;-73
2021/11/25 05:06:40;;;;;;;13.18;9.02;;;;;;;3.73;69.64;100045.75;8719048;33;20188;-72
2021/11/25 05:11:44;;;;;;;13.93;10.05;;;;;;;3.55;67.64;100030.88;8718769;33;21452;-74
2021/11/25 05:16:47;;;;;;;15.25;10.40;;;;;;;3.53;67.73;100038.06;8718172;33;20933;-75
2021/11/25 05:21:50;;;;;;;14.48;10.23;;;;;;;3.61;69.10;100041.97;8716722;33;21030;-73
2021/11/25 05:26:55;;;;;;;14.10;9.85;;;;;;;3.64;69.13;100030.31;8718611;33;20152;-75
2021/11/25 05:31:58;;;;;;;19.45;11.23;;;;;;;3.66;68.83;100023.13;8718631;33;20175;-74
2021/11/25 05:37:01;;;;;;;14.98;10.35;;;;;;;3.60;70.01;100020.84;8719868;33;21850;-74
2021/11/25 05:42:06;;;;;;;16.40;11.68;;;;;;;3.49;70.85;100022.31;8717896;33;20205;-74
2021/11/25 05:47:10;;;;;;;16.25;10.60;;;;;;;3.33;71.36;100023.25;8718888;33;20191;-73
2021/11/25 05:52:13;;;;;;;16.48;10.57;;;;;;;3.13;72.17;100019.94;8722303;33;20812;-72
2021/11/25 05:57:18;;;;;;;15.88;11.85;;;;;;;3.05;72.88;100033.63;8720136;33;20430;-74
2021/11/25 06:02:21;;;;;;;15.35;10.35;;;;;;;3.01;73.12;100023.25;8721544;33;20457;-73
2021/11/25 06:07:24;;;;;;;17.52;11.43;;;;;;;2.94;72.48;100019.25;8732787;33;20163;-74
2021/11/25 06:12:29;;;;;;;15.73;10.52;;;;;;;2.82;72.87;100016.31;8730412;33;20182;-74
2021/11/25 06:17:32;;;;;;;15.95;10.65;;;;;;;2.83;73.57;100010.06;8718722;33;20208;-73
2021/11/25 06:22:35;;;;;;;17.98;11.60;;;;;;;2.80;73.91;100009.41;8718274;33;20416;-73
2021/11/25 06:27:40;;;;;;;22.27;12.80;;;;;;;2.69;74.10;99990.53;8718801;33;20159;-73
2021/11/25 06:32:46;;;;;;;19.65;12.05;;;;;;;2.65;74.16;99999.59;8721722;33;20430;-73
2021/11/25 06:37:51;;;;;;;20.75;13.07;;;;;;;2.47;74.19;99986.38;8722125;33;20195;-73
2021/11/25 06:42:58;;;;;;;25.80;14.70;;;;;;;2.45;73.44;99995.34;8721651;33;20139;-73
2021/11/25 06:48:02;;;;;;;20.27;13.73;;;;;;;2.37;73.61;99996.59;8720689;33;20240;-73
2021/11/25 06:53:07;;;;;;;19.50;12.50;;;;;;;2.24;73.80;99992.03;8720806;33;20216;-73
2021/11/25 06:58:11;;;;;;;22.45;13.15;;;;;;;2.18;74.06;99995.88;8720376;33;20183;-72
2021/11/25 07:03:14;;;;;;;23.40;14.40;;;;;;;2.16;73.78;100006.53;8720372;33;20187;-73
2021/11/25 07:08:19;;;;;;;24.67;13.88;;;;;;;2.12;73.99;99999.69;8720484;33;20629;-73
2021/11/25 07:13:24;;;;;;;22.27;14.07;;;;;;;2.07;73.92;99991.13;8720923;33;20149;-73
2021/11/25 07:18:27;;;;;;;26.45;16.33;;;;;;;2.05;73.90;100002.75;8720936;33;21776;-73
2021/11/25 07:23:30;;;;;;;25.77;15.60;;;;;;;2.10;73.87;99998.06;8719714;33;20195;-72
2021/11/25 07:28:34;;;;;;;27.02;14.52;;;;;;;2.02;74.00;99994.94;8719096;33;20244;-73
2021/11/25 07:33:37;;;;;;;30.02;17.30;;;;;;;2.02;74.21;99993.16;8717104;33;20238;-74
2021/11/25 07:38:40;;;;;;;27.75;17.00;;;;;;;2.15;73.96;99990.72;8713094;33;20641;-74
2021/11/25 07:43:45;;;;;;;22.17;14.75;;;;;;;2.27;73.62;99997.19;8717931;33;20205;-74
2021/11/25 07:48:48;;;;;;;26.42;16.25;;;;;;;2.44;73.09;99986.56;8718834;33;20140;-74
2021/11/25 07:53:51;;;;;;;25.33;15.57;;;;;;;2.52;72.80;99979.00;8718874;33;20645;-74
2021/11/25 07:58:56;;;;;;;26.40;17.02;;;;;;;2.31;73.09;99981.03;8718867;33;20152;-74
2021/11/25 08:03:59;;;;;;;27.33;14.85;;;;;;;2.01;74.28;99970.25;8719370;33;20183;-74
2021/11/25 08:09:02;;;;;;;24.55;15.95;;;;;;;2.50;73.54;99969.47;8672598;33;20176;-74
2021/11/25 08:14:07;;;;;;;25.75;16.17;;;;;;;2.82;72.68;99971.19;8660416;33;20491;-74
2021/11/25 08:19:10;;;;;;;28.15;17.85;;;;;;;2.87;71.94;99983.38;8660196;33;20223;-74
2021/11/25 08:24:13;;;;;;;27.40;16.00;;;;;;;2.99;71.68;99993.28;8660559;33;20192;-74
2021/11/25 08:29:17;;;;;;;28.23;17.25;;;;;;;3.21;71.17;99975.25;8658486;33;20184;-73
2021/11/25 08:34:20;;;;;;;27.20;16.92;;;;;;;3.80;70.06;99974.50;8660086;33;20192;-73
2021/11/25 08:39:24;;;;;;;26.10;16.50;;;;;;;3.95;68.13;99973.59;8660028;33;20196;-73
2021/11/25 08:44:28;;;;;;;25.70;16.20;;;;;;;4.27;67.68;99960.97;8663049;33;20275;-73
2021/11/25 08:49:32;;;;;;;25.23;15.10;;;;;;;3.85;68.00;99949.38;8660457;33;20195;-72
2021/11/25 08:54:35;;;;;;;24.77;15.73;;;;;;;3.46;69.22;99950.78;8662322;33;21445;-72
2021/11/25 08:59:40;;;;;;;24.25;14.88;;;;;;;3.57;68.39;99950.16;8658858;33;20550;-72
2021/11/25 09:04:43;;;;;;;24.13;16.35;;;;;;;3.69;68.62;99949.41;8659586;33;20278;-72
2021/11/25 09:09:46;;;;;;;22.58;14.02;;;;;;;3.43;69.31;99953.63;8659077;33;20636;-73
2021/11/25 09:14:51;;;;;;;26.15;15.75;;;;;;;3.31;69.44;99953.47;8657721;33;20895;-73
2021/11/25 09:19:54;;;;;;;27.90;15.10;;;;;;;3.45;69.91;99957.03;8658833;33;20196;-73
2021/11/25 09:24:57;;;;;;;31.45;18.20;;;;;;;3.81;69.28;99954.94;8658906;33;20222;-72
2021/11/25 09:30:01;;;;;;;29.13;17.70;;;;;;;3.54;69.27;99946.81;8658021;33;20263;-73
2021/11/25 09:35:06;;;;;;;31.80;17.63;;;;;;;3.42;68.73;99954.53;8658959;33;20145;-72
2021/11/25 09:40:21;;;;;;;33.75;20.00;;;;;;;3.54;68.97;99968.94;8658582;33;20295;-71
2021/11/25 09:45:26;;;;;;;29.90;18.10;;;;;;;3.46;68.16;99953.44;8658502;33;20245;-72
2021/11/25 09:50:32;;;;;;;28.42;16.70;;;;;;;3.28;69.38;99941.22;8658195;33;21292;-72
2021/11/25 09:55:37;;;;;;;29.02;15.20;;;;;;;3.37;68.51;99938.03;8658344;33;20699;-72
2021/11/25 10:00:46;;;;;;;25.77;16.23;;;;;;;3.42;68.35;99956.34;8658001;33;20172;-73
2021/11/25 10:05:51;;;;;;;28.02;15.95;;;;;;;3.15;69.18;99956.97;8658042;33;20186;-73
2021/11/25 10:11:05;;;;;;;27.70;16.80;;;;;;;3.06;69.13;99941.59;8657660;33;20207;-72
2021/11/25 10:16:14;;;;;;;21.35;13.63;;;;;;;3.04;68.92;99946.13;8656389;33;20149;-72
2021/11/25 10:21:19;;;;;;;26.08;14.80;;;;;;;3.18;69.34;99932.94;8632819;33;20461;-72
2021/11/25 10:26:26;;;;;;;23.00;15.40;;;;;;;3.21;69.04;99935.44;8657664;33;20153;-72
2021/11/25 10:31:33;;;;;;;23.83;13.98;;;;;;;3.33;68.40;99930.34;8657199;33;21385;-74
2021/11/25 10:41:59;;;;;;;33.25;18.58;;;;;;;3.07;71.55;99932.69;8654958;33;20176;-74
2021/11/25 10:47:07;;;;;;;33.22;20.35;;;;;;;3.20;72.15;99925.72;8633081;33;21694;-73
2021/11/25 10:52:20;;;;;;;34.25;18.73;;;;;;;3.07;71.67;99919.41;8657306;33;20476;-73
2021/11/25 10:57:36;;;;;;;21.95;13.45;;;;;;;2.84;70.93;99931.34;8657883;33;20176;-73
2021/11/25 11:02:42;;;;;;;30.50;14.98;;;;;;;2.80;71.71;99927.16;8714801;33;20168;-74
2021/11/25 11:07:46;;;;;;;32.05;18.90;;;;;;;3.22;70.90;99923.84;8716076;33;20762;-73
2021/11/25 11:12:58;;;;;;;27.95;15.68;;;;;;;2.86;71.02;99928.63;8715446;33;20279;-73
2021/11/25 11:23:30;;;;;;;26.85;15.88;;;;;;;3.17;70.69;99917.09;8697997;33;20380;-73
2021/11/25 11:28:33;;;;;;;34.78;18.05;;;;;;;3.28;69.84;99907.56;8732185;33;20183;-74
2021/11/25 11:33:38;;;;;;;21.92;13.48;;;;;;;3.11;70.40;99896.22;8719649;33;20864;-73
2021/11/25 11:38:41;;;;;;;20.58;11.80;;;;;;;3.32;69.06;99896.75;8740612;33;20290;-73
2021/11/25 11:43:45;;;;;;;23.25;15.10;;;;;;;3.59;68.39;99888.97;8763210;33;20439;-72
2021/11/25 11:48:52;;;;;;;25.92;16.77;;;;;;;3.61;67.98;99876.44;8729016;33;20233;-74
2021/11/25 11:53:56;;;;;;;25.95;16.27;;;;;;;3.81;67.58;99867.25;8719789;33;20183;-74
2021/11/25 11:59:00;;;;;;;23.83;13.23;;;;;;;3.86;66.19;99865.19;8718746;33;20260;-73
2021/11/25 12:04:16;;;;;;;25.95;15.55;;;;;;;3.45;67.32;99864.09;8719981;33;20183;-73
2021/11/25 12:09:35;;;;;;;21.45;13.13;;;;;;;3.33;67.27;99861.31;8719395;33;20144;-73
2021/11/25 12:14:49;;;;;;;25.63;17.08;;;;;;;3.27;68.52;99851.91;8719138;33;20192;-73
2021/11/25 12:19:53;;;;;;;26.73;15.90;;;;;;;3.35;68.91;99851.47;8718464;33;20179;-73
2021/11/25 12:25:00;;;;;;;27.38;16.13;;;;;;;3.33;68.94;99845.38;8719123;33;20191;-73
2021/11/25 12:30:12;;;;;;;27.60;15.65;;;;;;;3.49;68.52;99856.81;8717136;33;20209;-74
2021/11/25 12:35:42;;;;;;;25.88;14.88;;;;;;;3.05;70.95;99845.22;8693301;33;20434;-74
2021/11/25 12:40:51;;;;;;;30.90;16.10;;;;;;;2.82;71.90;99854.47;8717557;33;20192;-73
2021/11/25 12:45:56;;;;;;;25.80;13.65;;;;;;;2.96;71.49;99845.75;8718236;33;20203;-74
2021/11/25 12:51:10;;;;;;;32.60;18.15;;;;;;;3.01;73.02;99841.00;8717875;33;20648;-74
2021/11/25 12:56:20;;;;;;;32.20;19.80;;;;;;;2.93;73.82;99851.22;8718009;33;20678;-74
2021/11/25 13:01:29;;;;;;;31.48;19.23;;;;;;;3.01;74.26;99858.75;8717608;33;20238;-74
2021/11/25 13:06:34;;;;;;;38.60;21.20;;;;;;;2.80;75.19;99848.44;8717659;33;20179;-74
2021/11/25 13:11:40;;;;;;;37.85;20.35;;;;;;;2.87;75.42;99848.94;8717380;33;20229;-73
2021/11/25 13:16:47;;;;;;;34.72;20.83;;;;;;;2.87;75.42;99848.94;8717614;33;20191;-74
2021/11/25 13:21:56;;;;;;;34.95;19.85;;;;;;;2.45;75.98;99846.91;8715021;33;20300;-73
2021/11/25 13:27:02;;;;;;;28.35;16.75;;;;;;;2.16;78.24;99838.75;8717609;33;20613;-73
2021/11/25 13:32:13;;;;;;;35.33;19.77;;;;;;;1.83;81.19;99831.69;8717680;33;20144;-74
2021/11/25 13:37:24;;;;;;;40.58;22.00;;;;;;;1.70;83.04;99831.50;8691828;33;20128;-73
2021/11/25 13:42:30;;;;;;;44.45;22.08;;;;;;;1.89;82.77;99839.31;8691485;33;20374;-74
2021/11/25 13:47:36;;;;;;;41.90;24.27;;;;;;;1.90;83.26;99818.97;8716240;33;20206;-74
2021/11/25 13:52:44;;;;;;;29.75;17.40;;;;;;;1.73;83.31;99812.78;8715738;33;20248;-74
2021/11/25 13:57:48;;;;;;;40.97;22.63;;;;;;;1.45;84.11;99810.75;8715141;33;20221;-74
2021/11/25 14:02:51;;;;;;;44.35;23.55;;;;;;;1.65;84.42;99801.75;8698666;33;20187;-74
2021/11/25 14:08:07;;;;;;;40.40;22.10;;;;;;;1.47;83.69;99795.63;8719264;33;20144;-74
2021/11/25 14:13:11;;;;;;;43.72;25.45;;;;;;;1.68;83.51;99796.28;8717134;33;20308;-74
2021/11/25 14:18:34;;;;;;;44.15;23.50;;;;;;;1.79;82.79;99792.22;8716214;33;20214;-74
2021/11/25 14:23:38;;;;;;;38.22;22.17;;;;;;;1.86;82.36;99786.50;8715915;33;20285;-72
2021/11/25 14:34:04;;;;;;;49.75;22.80;;;;;;;1.81;82.48;99777.09;8716050;33;20210;-73
2021/11/25 14:39:19;;;;;;;49.78;24.17;;;;;;;2.03;82.25;99771.47;8714562;33;20168;-74
2021/11/25 14:44:25;;;;;;;48.95;25.70;;;;;;;2.16;81.76;99773.34;8716478;33;20191;-73
2021/11/25 14:49:31;;;;;;;52.10;25.88;;;;;;;2.22;81.84;99768.66;8715395;33;20187;-74
2021/11/25 14:54:35;;;;;;;51.00;26.23;;;;;;;2.43;81.50;99759.47;8696026;33;20295;-74
2021/11/25 14:59:38;;;;;;;47.55;26.00;;;;;;;2.53;80.51;99767.78;8719929;33;20894;-73
2021/11/25 15:04:41;;;;;;;46.33;25.13;;;;;;;2.51;80.62;99772.31;8721388;33;20227;-74
2021/11/25 15:09:46;;;;;;;48.20;22.33;;;;;;;2.49;80.92;99761.78;8720074;33;20179;-72
2021/11/25 15:14:49;;;;;;;54.00;26.95;;;;;;;2.42;81.48;99776.34;8720563;33;20183;-73
2021/11/25 15:19:52;;;;;;;46.45;22.90;;;;;;;2.37;81.39;99781.03;8719871;33;21311;-73
2021/11/25 15:24:57;;;;;;;50.53;25.88;;;;;;;2.40;81.91;99781.72;8720483;33;20192;-73
2021/11/25 15:30:00;;;;;;;46.33;23.50;;;;;;;2.30;82.14;99779.66;8720614;33;20407;-73
2021/11/25 15:35:05;;;;;;;51.63;25.48;;;;;;;2.29;82.28;99784.13;8720469;33;20259;-74
2021/11/25 15:41:01;;;;;;;53.80;24.73;;;;;;;2.26;82.47;99773.69;9508257;27;20460;-77
2021/11/25 15:46:09;;;;;;;58.20;26.23;;;;;;;2.22;82.65;99771.28;8857794;33;20139;-76
2021/11/25 15:51:13;;;;;;;59.20;27.55;;;;;;;2.10;83.43;99780.78;8874489;33;20150;-76
2021/11/25 15:56:17;;;;;;;51.22;26.40;;;;;;;2.24;83.48;99778.22;8900514;27;20239;-73
2021/11/25 16:01:20;;;;;;;47.50;23.20;;;;;;;2.09;83.83;99785.25;8928625;32;20621;-73
2021/11/25 16:06:24;;;;;;;54.47;22.92;;;;;;;2.24;83.81;99788.81;8935085;32;20237;-73
2021/11/25 16:11:29;;;;;;;48.15;19.85;;;;;;;1.95;84.55;99787.81;8935444;32;20241;-73
2021/11/25 16:16:32;;;;;;;44.78;20.55;;;;;;;2.04;83.96;99789.94;8935079;32;20298;-73
2021/11/25 16:21:36;;;;;;;39.90;17.33;;;;;;;2.09;83.95;99797.66;8934316;32;20146;-73
2021/11/25 16:26:41;;;;;;;51.53;24.10;;;;;;;2.06;84.14;99774.81;8934664;32;20435;-73
2021/11/25 16:31:45;;;;;;;54.90;25.17;;;;;;;2.13;84.19;99780.63;8934255;32;20149;-73
2021/11/25 16:36:49;;;;;;;43.72;20.70;;;;;;;2.01;84.86;99789.25;8843284;32;20161;-73
2021/11/25 16:41:53;;;;;;;68.47;27.90;;;;;;;2.04;84.94;99782.00;8813171;33;20152;-72
2021/11/25 16:52:33;;;;;;;60.22;28.63;;;;;;;2.26;84.62;99779.00;8810929;33;20150;-73
2021/11/25 16:57:37;;;;;;;67.90;28.77;;;;;;;2.35;84.63;99780.28;8823674;33;20634;-73
2021/11/25 17:02:40;;;;;;;68.32;30.70;;;;;;;2.43;84.33;99774.53;8842502;33;20163;-73
2021/11/25 17:07:43;;;;;;;52.60;23.88;;;;;;;2.36;84.55;99779.34;8840593;33;20174;-73
2021/11/25 17:12:48;;;;;;;59.92;29.20;;;;;;;2.51;84.45;99770.50;8841349;33;20598;-73
2021/11/25 17:17:52;;;;;;;60.40;29.85;;;;;;;2.32;84.94;99783.94;8842188;33;20881;-73
2021/11/25 17:22:56;;;;;;;70.78;27.48;;;;;;;2.28;85.57;99794.81;8842273;33;20138;-73
2021/11/25 17:28:00;;;;;;;72.38;30.45;;;;;;;2.30;86.12;99795.56;8812350;33;20651;-73
2021/11/25 17:33:03;;;;;;;63.78;27.05;;;;;;;2.29;85.91;99783.28;8812254;33;20764;-73
2021/11/25 17:38:08;;;;;;;69.72;32.58;;;;;;;2.30;86.06;99788.47;8812712;33;20573;-73
2021/11/25 17:43:14;;;;;;;66.40;28.27;;;;;;;2.29;86.03;99784.13;8812123;33;20147;-73
2021/11/25 17:48:17;;;;;;;56.78;22.35;;;;;;;2.20;86.29;99779.34;8812745;33;20147;-73
2021/11/25 17:53:21;;;;;;;79.05;33.47;;;;;;;2.45;85.84;99783.28;8811927;33;20232;-72
2021/11/25 17:58:26;;;;;;;63.03;26.13;;;;;;;2.32;86.28;99783.94;8811449;33;20197;-73
2021/11/25 18:03:29;;;;;;;53.55;23.63;;;;;;;2.43;85.56;99780.69;8851998;33;20135;-73
2021/11/25 18:08:32;;;;;;;71.75;31.75;;;;;;;2.44;85.95;99781.53;8861634;33;20174;-73
2021/11/25 18:13:36;;;;;;;68.35;27.25;;;;;;;2.41;85.57;99777.25;8814091;33;20139;-73
2021/11/25 18:18:39;;;;;;;65.00;28.70;;;;;;;2.46;85.76;99775.22;8811904;33;20136;-73
2021/11/25 18:23:43;;;;;;;69.05;27.30;;;;;;;2.39;86.44;99790.63;8811415;33;20664;-73
2021/11/25 18:28:49;;;;;;;40.30;19.42;;;;;;;2.47;85.86;99789.31;8811404;33;20143;-73
2021/11/25 18:33:53;;;;;;;49.35;22.88;;;;;;;2.24;87.14;99775.56;8812049;33;20143;-72
2021/11/25 18:38:56;;;;;;;56.17;22.48;;;;;;;2.45;86.28;99777.97;8811549;33;20410;-72
2021/11/25 18:44:02;;;;;;;57.10;23.70;;;;;;;2.29;86.41;99776.16;8810759;33;20139;-72
2021/11/25 18:49:08;;;;;;;63.55;27.02;;;;;;;2.51;86.46;99769.66;8822673;33;20958;-72
2021/11/25 18:54:11;;;;;;;62.88;25.27;;;;;;;2.49;86.15;99766.22;8833537;33;20187;-72
2021/11/25 18:59:16;;;;;;;64.70;26.40;;;;;;;2.57;85.73;99761.38;8810430;33;20198;-72
2021/11/25 19:04:19;;;;;;;54.25;23.90;;;;;;;2.47;86.11;99763.69;8810621;33;20147;-73
2021/11/25 19:09:24;;;;;;;63.40;24.90;;;;;;;2.53;86.14;99760.72;8810153;33;20224;-72
2021/11/25 19:14:29;;;;;;;58.40;24.00;;;;;;;2.46;86.68;99750.50;8810485;33;20718;-73
2021/11/25 19:19:32;;;;;;;64.10;25.88;;;;;;;2.56;86.25;99741.97;8810177;33;20143;-73
2021/11/25 19:24:35;;;;;;;48.33;19.38;;;;;;;2.39;86.46;99742.91;8809563;33;20147;-73
2021/11/25 19:29:40;;;;;;;47.45;20.70;;;;;;;2.47;85.95;99747.78;8810010;33;20147;-73
2021/11/25 19:34:43;;;;;;;53.17;20.77;;;;;;;2.51;86.05;99754.59;8810320;33;20150;-73
2021/11/25 19:39:46;;;;;;;58.65;23.08;;;;;;;2.50;86.10;99749.41;8814563;33;20139;-73
2021/11/25 19:44:51;;;;;;;54.97;23.67;;;;;;;2.53;85.90;99750.09;8814819;33;20144;-73
2021/11/25 19:49:57;;;;;;;60.55;24.15;;;;;;;2.46;86.43;99745.19;8815603;33;20201;-73
2021/11/25 19:55:00;;;;;;;62.13;22.65;;;;;;;2.65;85.82;99745.88;8814671;33;20183;-73
2021/11/25 20:00:08;;;;;;;57.30;23.63;;;;;;;2.70;85.61;99737.66;8837356;33;20194;-73
2021/11/25 20:05:14;;;;;;;51.58;24.95;;;;;;;2.67;85.66;99736.03;8842758;33;20151;-73
2021/11/25 20:10:19;;;;;;;57.17;24.10;;;;;;;2.73;85.27;99748.09;8843863;33;20658;-73
2021/11/25 20:15:26;;;;;;;51.42;23.52;;;;;;;2.65;85.72;99743.22;8845195;33;20580;-76
2021/11/25 20:20:30;;;;;;;43.33;18.10;;;;;;;2.50;85.65;99738.78;8841018;33;20174;-73
2021/11/25 20:25:37;;;;;;;59.85;23.92;;;;;;;2.83;84.83;99742.16;8841487;33;20154;-73
2021/11/25 20:30:43;;;;;;;53.85;22.23;;;;;;;2.79;84.66;99737.94;8842469;33;20623;-73
2021/11/25 20:35:49;;;;;;;61.28;25.13;;;;;;;2.78;84.59;99724.81;8844670;33;20166;-73
2021/11/25 20:40:53;;;;;;;51.58;20.27;;;;;;;2.60;85.13;99721.41;8840668;33;20721;-73
2021/11/25 20:45:57;;;;;;;52.20;22.98;;;;;;;2.73;84.34;99727.72;8843298;33;20150;-74
2021/11/25 20:51:02;;;;;;;49.60;20.77;;;;;;;2.68;84.01;99727.13;8861670;33;20150;-72
2021/11/25 20:56:05;;;;;;;51.08;22.63;;;;;;;2.51;84.31;99712.19;8872974;33;20472;-71
2021/11/25 21:01:12;;;;;;;42.83;15.43;;;;;;;2.58;83.79;99710.91;8872367;33;20281;-72
2021/11/25 21:06:15;;;;;;;50.85;22.25;;;;;;;2.88;82.89;99701.22;8872490;33;20263;-72
2021/11/25 21:11:19;;;;;;;47.88;20.80;;;;;;;2.78;83.15;99690.31;8846161;33;20189;-72
2021/11/25 21:16:24;;;;;;;51.78;19.27;;;;;;;2.75;82.86;99696.66;8850253;33;20643;-73
2021/11/25 21:21:27;;;;;;;46.38;20.85;;;;;;;2.56;83.36;99701.34;8840121;33;20456;-72
2021/11/25 21:26:30;;;;;;;47.47;18.58;;;;;;;2.59;83.31;99690.56;8831889;33;20311;-73
2021/11/25 21:31:37;;;;;;;51.88;20.38;;;;;;;2.77;82.66;99677.97;8812573;33;20548;-72
2021/11/25 21:36:41;;;;;;;46.90;18.55;;;;;;;2.80;82.43;99673.38;8812091;33;20151;-72
2021/11/25 21:41:44;;;;;;;47.22;20.45;;;;;;;2.73;82.94;99661.41;8811768;33;20224;-72
2021/11/25 21:46:48;;;;;;;38.92;16.38;;;;;;;2.43;83.96;99657.91;8811545;33;20637;-72
2021/11/25 21:51:53;;;;;;;47.20;18.60;;;;;;;2.60;83.63;99653.31;8810862;33;20142;-72
2021/11/25 21:56:56;;;;;;;46.85;19.25;;;;;;;2.53;83.71;99645.81;8811490;33;20143;-72
2021/11/25 22:02:00;;;;;;;37.97;14.73;;;;;;;2.44;83.63;99638.38;8785438;33;20190;-72
2021/11/25 22:07:03;;;;;;;40.55;15.65;;;;;;;2.43;83.35;99636.69;8811540;33;20204;-72
2021/11/25 22:12:07;;;;;;;40.50;18.65;;;;;;;2.39;83.51;99628.94;8811596;33;20624;-73
2021/11/25 22:17:11;;;;;;;29.85;13.10;;;;;;;2.35;83.60;99638.00;8810953;33;20162;-73
2021/11/25 22:27:36;;;;;;;32.85;12.68;;;;;;;2.24;83.78;99627.16;8813054;33;20143;-73
2021/11/25 22:32:40;;;;;;;28.70;11.55;;;;;;;2.42;83.29;99627.91;8808920;33;20292;-72
2021/11/25 22:37:44;;;;;;;37.15;15.18;;;;;;;2.29;84.03;99621.59;8807426;33;20185;-72
2021/11/25 22:42:48;;;;;;;43.30;16.98;;;;;;;2.40;83.07;99604.13;8773642;33;20631;-73
2021/11/25 22:47:52;;;;;;;41.70;18.33;;;;;;;2.40;83.33;99593.50;8799560;33;20861;-72
2021/11/25 22:52:55;;;;;;;33.90;15.07;;;;;;;2.14;83.82;99589.78;8779445;33;20146;-73
2021/11/25 22:57:59;;;;;;;35.97;15.07;;;;;;;2.24;83.90;99581.28;8799559;33;20151;-73
2021/11/25 23:03:03;;;;;;;41.78;15.25;;;;;;;2.48;82.90;99579.81;8832773;33;20221;-73
2021/11/25 23:08:07;;;;;;;37.35;14.05;;;;;;;2.16;83.88;99581.72;8832398;33;20188;-72
2021/11/25 23:13:12;;;;;;;33.88;13.80;;;;;;;2.33;83.23;99575.41;8836269;33;20183;-72
2021/11/25 23:18:18;;;;;;;37.42;15.50;;;;;;;2.59;82.62;99579.19;8836998;33;20957;-73
2021/11/25 23:23:22;;;;;;;31.45;14.15;;;;;;;2.50;82.71;99583.22;8837343;33;20190;-73
2021/11/25 23:28:25;;;;;;;31.77;13.98;;;;;;;2.47;83.05;99564.84;8837321;33;20182;-73
2021/11/25 23:33:29;;;;;;;42.10;16.90;;;;;;;2.42;83.20;99564.28;8837196;33;20178;-73
2021/11/25 23:38:32;;;;;;;35.85;13.82;;;;;;;2.40;83.40;99545.81;8837400;33;20926;-73
2021/11/25 23:43:35;;;;;;;29.48;11.80;;;;;;;2.33;83.80;99536.53;8837557;33;20328;-72
2021/11/25 23:48:42;;;;;;;42.20;16.38;;;;;;;2.48;83.34;99533.88;8837270;33;20221;-73
2021/11/25 23:53:46;;;;;;;44.75;17.75;;;;;;;2.45;83.25;99529.63;8836535;33;20282;-73
2021/11/25 23:58:49;;;;;;;27.63;9.95;;;;;;;2.22;83.78;99532.81;8852933;33;20197;-73
